This is the latest recevied weather packets stored in our database for station/object K4NSC-13. If no packets are shown the sender has not sent any weather packets the latest 10 day(s).
| Time | Temp. | Humidity | Pressure | Rain* | Wind** | Luminosity | Snow |
|---|---|---|---|---|---|---|---|
| 1777979748 | 10° C | 97% | 1017.2 hPa | 0 mm | - | 33 W/m² | - |
| 1777973745 | 11.11° C | 94% | 1016.4 hPa | 0 mm | - | 0 W/m² | - |
| 1777972530 | 11.11° C | 93% | 1016.4 hPa | 0 mm | - | 0 W/m² | - |
| 1777971930 | 11.11° C | 92% | 1016.3 hPa | 0 mm | - | 0 W/m² | - |
| 1777963535 | 13.33° C | 84% | 1015.9 hPa | 0 mm | - | 0 W/m² | - |
| 1777960518 | 16.11° C | 77% | 1016.1 hPa | 0 mm | - | 0 W/m² | - |
| 1777958139 | 17.22° C | 70% | 1016.2 hPa | 0 mm | - | 0 W/m² | - |
| 1777956320 | 17.78° C | 68% | 1016.3 hPa | 0 mm | - | 0 W/m² | - |
| 1777955761 | 17.78° C | 68% | 1016.2 hPa | 0 mm | - | 0 W/m² | - |
| 1777953323 | 17.78° C | 68% | 1016.3 hPa | 0 mm | - | 0 W/m² | - |
| 1777951561 | 18.33° C | 66% | 1016.4 hPa | 0 mm | - | 0 W/m² | - |
| 1777950921 | 18.33° C | 65% | 1016.3 hPa | 0 mm | - | 0 W/m² | - |
| 1777948541 | 19.44° C | 63% | 1016.2 hPa | 0 mm | - | 0 W/m² | - |
| 1777946719 | 20° C | 62% | 1015.9 hPa | 0 mm | - | 0 W/m² | - |
| 1777941345 | 20° C | 53% | 1014.6 hPa | 0 mm | - | 0 W/m² | - |
| 1777938324 | 23.89° C | 40% | 1014 hPa | 0 mm | - | 21 W/m² | - |
| 1777931123 | 27.22° C | 35% | 1013.7 hPa | 0 mm | - | 288 W/m² | - |
| 1777929923 | 27.22° C | 33% | 1013.8 hPa | 0 mm | - | 453 W/m² | - |
| 1777927524 | 27.22° C | 34% | 1013.8 hPa | 0 mm | - | 575 W/m² | - |
| 1777925744 | 27.22° C | 34% | 1014.1 hPa | 0 mm | - | 652 W/m² | - |
| 1777925118 | 26.67° C | 35% | 1014.1 hPa | 0 mm | - | 717 W/m² | - |
| 1777922119 | 26.11° C | 34% | 1015 hPa | 0 mm | - | 821 W/m² | - |
| 1777917320 | 25° C | 37% | 1015.9 hPa | 0 mm | - | 977 W/m² | - |
| 1777915520 | 24.44° C | 39% | 1016.4 hPa | 0 mm | - | 997 W/m² | - |
| 1777913141 | 23.89° C | 42% | 1016.9 hPa | 0 mm | - | 967 W/m² | - |
* Rain latest hour (hover to see other rain measurements)
** Current wind speed in m/s (hover to see current wind gust speed)